createdAt,value
2022-08-11T00:00:11.211Z,18.25
2022-08-11T00:05:23.620Z,18.18
2022-08-11T00:10:33.439Z,18.12
2022-08-11T00:15:44.342Z,18.06
2022-08-11T00:20:50.250Z,17.93
2022-08-11T00:25:58.415Z,17.81
2022-08-11T00:31:07.984Z,17.78
2022-08-11T00:36:16.266Z,17.69
2022-08-11T00:41:37.455Z,17.64
2022-08-11T00:46:56.109Z,17.58
2022-08-11T00:52:15.249Z,17.48
2022-08-11T00:57:56.545Z,17.38
2022-08-11T01:03:20.881Z,17.36
2022-08-11T01:08:59.200Z,17.32
2022-08-11T01:14:37.959Z,17.25
2022-08-11T01:20:46.415Z,17.20
2022-08-11T01:26:30.567Z,17.10
2022-08-11T01:32:16.467Z,17.02
2022-08-11T01:38:01.801Z,16.92
2022-08-11T01:43:53.089Z,16.84
2022-08-11T01:50:05.974Z,16.77
2022-08-11T01:54:49.177Z,16.73
2022-08-11T02:00:03.909Z,16.69
2022-08-11T02:05:43.712Z,16.63
2022-08-11T02:11:24.201Z,16.57
2022-08-11T02:16:42.989Z,16.48
2022-08-11T02:22:06.101Z,16.30
2022-08-11T02:27:23.390Z,16.24
2022-08-11T02:32:48.608Z,16.16
2022-08-11T02:38:03.835Z,16.08
2022-08-11T02:43:22.827Z,15.97
2022-08-11T02:49:02.223Z,15.94
2022-08-11T02:54:14.787Z,15.86
2022-08-11T02:59:46.716Z,15.77
2022-08-11T03:05:07.465Z,15.71
2022-08-11T03:10:18.293Z,15.65
2022-08-11T03:15:44.861Z,15.60
2022-08-11T03:20:57.033Z,15.55
2022-08-11T03:26:08.873Z,15.51
2022-08-11T03:31:27.173Z,15.41
2022-08-11T03:37:17.083Z,15.37
2022-08-11T03:42:30.936Z,15.32
2022-08-11T03:48:12.274Z,15.28
2022-08-11T03:53:22.984Z,15.24
2022-08-11T03:59:10.953Z,15.23
2022-08-11T04:04:51.315Z,15.18
2022-08-11T04:10:44.471Z,15.15
2022-08-11T04:16:32.829Z,15.08
2022-08-11T04:22:00.798Z,15.02
2022-08-11T04:27:37.310Z,14.98
2022-08-11T04:33:12.720Z,14.96
2022-08-11T04:38:37.947Z,14.93
2022-08-11T04:44:24.516Z,14.93
2022-08-11T04:50:16.294Z,14.92
2022-08-11T04:56:00.304Z,14.92
2022-08-11T05:01:39.038Z,14.93
2022-08-11T05:07:22.470Z,14.94
2022-08-11T05:12:43.829Z,15.01
2022-08-11T05:18:13.806Z,15.05
2022-08-11T05:23:34.898Z,15.14
2022-08-11T05:28:59.310Z,15.21
2022-08-11T05:34:25.988Z,15.31
2022-08-11T05:39:46.601Z,15.40
2022-08-11T05:45:15.702Z,15.52
2022-08-11T05:50:34.819Z,15.62
2022-08-11T05:56:02.980Z,15.74
2022-08-11T06:01:13.957Z,15.83
2022-08-11T06:06:19.151Z,15.93
2022-08-11T06:11:43.022Z,16.01
2022-08-11T06:16:56.652Z,16.17
2022-08-11T06:22:02.594Z,16.31
2022-08-11T06:27:12.659Z,16.45
2022-08-11T06:32:22.897Z,16.60
2022-08-11T06:37:39.096Z,16.76
2022-08-11T06:42:53.341Z,16.92
2022-08-11T06:48:03.592Z,17.10
2022-08-11T06:53:10.761Z,17.34
2022-08-11T06:58:32.018Z,17.53
2022-08-11T07:03:45.971Z,17.79
2022-08-11T07:09:47.003Z,18.04
2022-08-11T07:15:08.615Z,18.32
2022-08-11T07:20:29.897Z,18.62
2022-08-11T07:25:51.709Z,18.90
2022-08-11T07:31:01.814Z,19.23
2022-08-11T07:36:14.478Z,19.56
2022-08-11T07:41:21.605Z,19.97
2022-08-11T07:46:42.740Z,20.18
2022-08-11T07:52:04.369Z,20.48
2022-08-11T07:57:46.084Z,20.73
2022-08-11T08:03:03.154Z,20.99
2022-08-11T08:08:24.285Z,21.26
2022-08-11T08:13:41.716Z,21.73
2022-08-11T08:18:47.628Z,22.10
2022-08-11T08:23:57.340Z,22.56
2022-08-11T08:29:18.415Z,22.74
2022-08-11T08:34:24.551Z,23.08
2022-08-11T08:39:34.689Z,23.46
2022-08-11T08:44:45.098Z,23.73
2022-08-11T08:49:53.393Z,24.02
2022-08-11T08:55:07.317Z,24.22
2022-08-11T09:00:16.857Z,24.47
2022-08-11T09:05:26.337Z,24.73
2022-08-11T09:10:38.164Z,24.97
2022-08-11T09:15:44.644Z,25.18
2022-08-11T09:20:50.827Z,25.33
2022-08-11T09:26:13.338Z,25.56
2022-08-11T09:31:21.974Z,25.69
2022-08-11T09:36:39.765Z,25.85
2022-08-11T09:41:55.721Z,25.98
2022-08-11T09:47:15.772Z,25.99
2022-08-11T09:52:22.183Z,26.03
2022-08-11T09:57:42.343Z,26.23
2022-08-11T10:02:50.237Z,26.36
2022-08-11T10:08:00.624Z,26.32
2022-08-11T10:14:31.532Z,26.37
2022-08-11T10:18:55.641Z,26.38
2022-08-11T10:24:16.341Z,26.20
2022-08-11T10:29:38.481Z,26.02
2022-08-11T10:34:57.822Z,25.94
2022-08-11T10:40:04.817Z,26.23
2022-08-11T10:45:26.385Z,26.51
2022-08-11T10:50:44.492Z,26.64
2022-08-11T11:01:36.649Z,26.82
2022-08-11T11:06:53.540Z,26.88
2022-08-11T11:12:16.161Z,27.01
2022-08-11T11:17:43.216Z,27.16
2022-08-11T11:22:52.448Z,27.33
2022-08-11T11:28:22.076Z,27.31
2022-08-11T11:34:06.809Z,27.45
2022-08-11T11:39:14.497Z,27.64
2022-08-11T11:44:23.297Z,27.76
2022-08-11T11:49:48.805Z,28.04
2022-08-11T11:54:58.590Z,28.19
2022-08-11T12:00:16.479Z,28.30
2022-08-11T12:05:25.263Z,28.44
2022-08-11T12:10:31.448Z,28.74
2022-08-11T12:16:31.040Z,28.90
2022-08-11T12:21:08.064Z,28.93
2022-08-11T12:26:41.439Z,28.84
2022-08-11T12:31:47.425Z,29.22
2022-08-11T12:37:00.479Z,29.43
2022-08-11T12:42:33.793Z,29.52
2022-08-11T12:48:57.542Z,29.65
2022-08-11T12:53:31.429Z,29.43
2022-08-11T12:58:37.762Z,29.60
2022-08-11T13:09:15.707Z,30.22
2022-08-11T13:14:22.078Z,30.52
2022-08-11T13:19:28.455Z,30.78
2022-08-11T13:24:37.173Z,30.94
2022-08-11T13:29:47.027Z,30.81
2022-08-11T13:34:53.607Z,30.77
2022-08-11T13:40:02.479Z,30.92
2022-08-11T13:45:10.325Z,31.18
2022-08-11T13:50:18.822Z,31.10
2022-08-11T13:55:50.887Z,31.28
2022-08-11T14:00:57.902Z,31.57
2022-08-11T14:06:06.568Z,31.81
2022-08-11T14:12:22.792Z,32.08
2022-08-11T14:16:56.946Z,32.47
2022-08-11T14:22:11.604Z,32.87
2022-08-11T14:28:15.433Z,32.55
2022-08-11T14:32:57.059Z,32.77
2022-08-11T14:38:05.699Z,33.01
2022-08-11T14:44:02.743Z,33.26
2022-08-11T14:48:53.268Z,33.38
2022-08-11T14:54:19.041Z,33.50
2022-08-11T14:59:27.998Z,33.62
2022-08-11T15:04:35.263Z,33.77
2022-08-11T15:10:09.917Z,33.76
2022-08-11T15:15:26.890Z,33.32
2022-08-11T15:20:46.096Z,33.34
2022-08-11T15:25:55.950Z,33.38
2022-08-11T15:31:19.235Z,33.60
2022-08-11T15:36:37.699Z,33.53
2022-08-11T15:41:59.279Z,33.83
2022-08-11T15:47:09.243Z,34.08
2022-08-11T15:52:16.606Z,33.93
2022-08-11T15:57:39.511Z,33.65
2022-08-11T16:03:03.248Z,33.82
2022-08-11T16:08:13.293Z,33.79
2022-08-11T16:13:33.996Z,33.85
2022-08-11T16:18:51.657Z,33.34
2022-08-11T16:24:02.119Z,33.29
2022-08-11T16:29:08.889Z,33.14
2022-08-11T16:34:29.065Z,32.88
2022-08-11T16:39:34.206Z,32.70
2022-08-11T16:44:52.503Z,32.52
2022-08-11T16:50:01.701Z,32.28
2022-08-11T16:55:08.045Z,32.45
2022-08-11T17:00:15.954Z,32.63
2022-08-11T17:05:54.389Z,32.65
2022-08-11T17:11:15.971Z,32.24
2022-08-11T17:16:24.582Z,31.94
2022-08-11T17:21:34.909Z,31.72
2022-08-11T17:27:00.780Z,31.59
2022-08-11T17:32:21.517Z,31.13
2022-08-11T17:37:31.065Z,30.82
2022-08-11T17:42:50.048Z,30.58
2022-08-11T17:48:08.441Z,30.09
2022-08-11T17:53:32.073Z,29.75
2022-08-11T17:58:51.216Z,29.52
2022-08-11T18:03:59.238Z,29.18
2022-08-11T18:09:23.307Z,28.96
2022-08-11T18:14:41.483Z,28.72
2022-08-11T18:19:59.672Z,28.48
2022-08-11T18:25:24.441Z,28.24
2022-08-11T18:30:42.998Z,27.84
2022-08-11T18:36:06.408Z,27.35
2022-08-11T18:41:27.088Z,27.00
2022-08-11T18:46:48.579Z,26.67
2022-08-11T18:52:09.175Z,26.38
2022-08-11T18:57:30.298Z,26.12
2022-08-11T19:02:54.358Z,25.81
2022-08-11T19:08:17.901Z,25.63
2022-08-11T19:13:42.643Z,25.42
2022-08-11T19:19:03.525Z,25.20
2022-08-11T19:24:22.834Z,24.96
2022-08-11T19:30:11.126Z,24.70
2022-08-11T19:35:23.349Z,24.52
2022-08-11T19:40:42.327Z,24.34
2022-08-11T19:46:03.394Z,24.08
2022-08-11T19:51:35.693Z,23.90
2022-08-11T19:56:53.731Z,23.75
2022-08-11T20:02:15.747Z,23.59
2022-08-11T20:07:34.388Z,23.41
2022-08-11T20:12:54.725Z,23.31
2022-08-11T20:18:16.589Z,23.14
2022-08-11T20:23:35.535Z,23.01
2022-08-11T20:28:57.927Z,22.88
2022-08-11T20:34:20.232Z,22.76
2022-08-11T20:39:41.714Z,22.66
2022-08-11T20:45:00.721Z,22.58
2022-08-11T20:50:23.883Z,22.51
2022-08-11T20:55:53.221Z,22.43
2022-08-11T21:01:24.295Z,22.34
2022-08-11T21:06:52.568Z,22.20
2022-08-11T21:12:14.381Z,22.05
2022-08-11T21:17:34.959Z,21.91
2022-08-11T21:23:05.940Z,21.76
2022-08-11T21:28:27.353Z,21.60
2022-08-11T21:33:47.078Z,21.47
2022-08-11T21:39:09.150Z,21.32
2022-08-11T21:44:26.905Z,21.20
2022-08-11T21:49:48.124Z,21.11
2022-08-11T21:55:09.832Z,21.03
2022-08-11T22:00:29.025Z,20.93
2022-08-11T22:05:48.454Z,20.82
2022-08-11T22:11:08.565Z,20.73
2022-08-11T22:16:27.091Z,20.62
2022-08-11T22:21:56.821Z,20.54
2022-08-11T22:27:24.833Z,20.44
2022-08-11T22:32:43.160Z,20.35
2022-08-11T22:38:02.673Z,20.26
2022-08-11T22:43:22.734Z,20.19
2022-08-11T22:48:41.569Z,20.07
2022-08-11T22:53:59.951Z,20.00
2022-08-11T22:59:21.624Z,19.92
2022-08-11T23:04:40.006Z,19.86
2022-08-11T23:09:57.521Z,19.82
2022-08-11T23:15:18.453Z,19.77
2022-08-11T23:20:40.712Z,19.68
2022-08-11T23:26:12.434Z,19.62
2022-08-11T23:31:50.323Z,19.58
2022-08-11T23:37:10.061Z,19.52
2022-08-11T23:48:23.080Z,19.40
2022-08-11T23:53:40.690Z,19.36
2022-08-11T23:58:59.064Z,19.32
